createdAt,value
2019-01-16T00:00:58.536Z,99662.45
2019-01-16T00:03:29.432Z,99669.72
2019-01-16T00:06:03.161Z,99669.25
2019-01-16T00:08:31.267Z,99670.96
2019-01-16T00:10:59.252Z,99675.61
2019-01-16T00:13:29.792Z,99673.01
2019-01-16T00:16:03.825Z,99670.89
2019-01-16T00:18:34.363Z,99676.02
2019-01-16T00:21:08.662Z,99677.29
2019-01-16T00:23:36.584Z,99686.23
2019-01-16T00:26:07.206Z,99683.19
2019-01-16T00:28:47.416Z,99685.32
2019-01-16T00:31:15.461Z,99682.34
2019-01-16T00:33:43.425Z,99676.77
2019-01-16T00:36:14.150Z,99681.88
2019-01-16T00:38:50.949Z,99687.87
2019-01-16T00:41:24.831Z,99687.42
2019-01-16T00:43:55.669Z,99697.25
2019-01-16T00:46:40.256Z,99694.27
2019-01-16T00:49:20.054Z,99691.72
2019-01-16T00:51:51.228Z,99689.56
2019-01-16T00:54:19.009Z,99689.16
2019-01-16T00:56:56.314Z,99688.28
2019-01-16T00:59:38.990Z,99694.69
2019-01-16T01:02:18.900Z,99701.52
2019-01-16T01:04:49.493Z,99701.50
2019-01-16T01:07:20.644Z,99701.45
2019-01-16T01:09:51.488Z,99707.84
2019-01-16T01:12:31.488Z,99710.39
2019-01-16T01:15:05.179Z,99713.36
2019-01-16T01:17:36.152Z,99721.41
2019-01-16T01:20:22.826Z,99718.82
2019-01-16T01:22:56.691Z,99721.77
2019-01-16T01:25:33.687Z,99722.61
2019-01-16T01:28:16.558Z,99722.61
2019-01-16T01:31:02.383Z,99729.39
2019-01-16T01:33:33.163Z,99729.36
2019-01-16T01:36:16.165Z,99727.63
2019-01-16T01:38:50.560Z,99721.23
2019-01-16T01:41:21.157Z,99720.83
2019-01-16T01:43:55.025Z,99721.69
2019-01-16T01:46:36.014Z,99723.86
2019-01-16T01:49:20.430Z,99725.19
2019-01-16T01:51:57.248Z,99725.23
2019-01-16T01:54:25.254Z,99724.02
2019-01-16T01:57:08.276Z,99729.17
2019-01-16T01:59:36.572Z,99725.76
2019-01-16T02:02:07.405Z,99719.80
2019-01-16T02:04:38.479Z,99725.37
2019-01-16T02:07:12.081Z,99726.24
2019-01-16T02:09:40.225Z,99726.24
2019-01-16T02:12:10.823Z,99730.07
2019-01-16T02:14:38.733Z,99724.94
2019-01-16T02:17:06.858Z,99722.80
2019-01-16T02:19:37.768Z,99720.66
2019-01-16T02:22:08.624Z,99724.55
2019-01-16T02:24:36.636Z,99724.15
2019-01-16T02:27:11.124Z,99726.28
2019-01-16T02:29:57.084Z,99669.75
2019-01-16T02:32:25.132Z,99728.37
2019-01-16T02:34:55.658Z,99725.80
2019-01-16T02:37:23.566Z,99724.11
2019-01-16T02:39:57.595Z,99724.11
2019-01-16T02:42:28.379Z,99730.07
2019-01-16T02:44:56.439Z,99727.04
2019-01-16T02:47:24.665Z,99720.14
2019-01-16T02:49:52.495Z,99719.70
2019-01-16T02:52:20.398Z,99717.49
2019-01-16T02:55:05.642Z,99722.15
2019-01-16T02:57:33.556Z,99720.84
2019-01-16T03:00:04.357Z,99720.84
2019-01-16T03:02:49.041Z,99708.88
2019-01-16T03:05:22.628Z,99711.91
2019-01-16T03:08:02.553Z,99716.55
2019-01-16T03:10:36.436Z,99714.41
2019-01-16T03:13:16.333Z,99717.77
2019-01-16T03:15:47.024Z,99722.45
2019-01-16T03:18:31.374Z,99726.68
2019-01-16T03:20:59.372Z,99669.67
2019-01-16T03:23:27.504Z,99721.00
2019-01-16T03:25:56.313Z,99719.25
2019-01-16T03:28:26.880Z,99719.25
2019-01-16T03:31:11.430Z,99722.28
2019-01-16T03:33:39.358Z,99721.82
2019-01-16T03:36:08.945Z,99728.20
2019-01-16T03:38:42.946Z,99727.75
2019-01-16T03:41:28.802Z,99722.16
2019-01-16T03:43:56.846Z,99729.39
2019-01-16T03:46:36.869Z,99734.48
2019-01-16T03:49:13.153Z,99736.20
2019-01-16T03:51:38.255Z,99735.28
2019-01-16T03:54:12.044Z,99739.48
2019-01-16T03:56:42.743Z,99739.93
2019-01-16T03:59:17.420Z,99745.88
2019-01-16T04:02:01.865Z,99745.03
2019-01-16T04:04:30.197Z,99748.00
2019-01-16T04:07:03.764Z,99735.59
2019-01-16T04:09:32.108Z,99740.74
2019-01-16T04:12:14.842Z,99738.20
2019-01-16T04:14:43.020Z,99744.66
2019-01-16T04:17:29.058Z,99745.11
2019-01-16T04:19:57.256Z,99748.48
2019-01-16T04:22:31.124Z,99742.05
2019-01-16T04:25:08.312Z,99687.20
2019-01-16T04:27:52.785Z,99747.20
2019-01-16T04:30:29.879Z,99750.59
2019-01-16T04:33:14.118Z,99748.03
2019-01-16T04:35:44.894Z,99745.49
2019-01-16T04:38:15.680Z,99742.08
2019-01-16T04:40:46.800Z,99740.38
2019-01-16T04:43:16.513Z,99744.23
2019-01-16T04:45:47.102Z,99748.08
2019-01-16T04:48:18.343Z,99741.23
2019-01-16T04:50:51.983Z,99735.61
2019-01-16T04:53:20.075Z,99745.01
2019-01-16T04:55:53.805Z,99740.64
2019-01-16T04:58:27.913Z,99739.72
2019-01-16T05:00:58.520Z,99734.13
2019-01-16T05:03:44.453Z,99744.36
2019-01-16T05:06:28.728Z,99731.10
2019-01-16T05:09:02.545Z,99742.64
2019-01-16T05:11:33.369Z,99733.70
2019-01-16T05:14:19.494Z,99732.84
2019-01-16T05:16:59.467Z,99731.20
2019-01-16T05:19:38.373Z,99734.64
2019-01-16T05:22:02.908Z,99726.97
2019-01-16T05:24:36.869Z,99730.88
2019-01-16T05:27:21.054Z,99733.38
2019-01-16T05:29:51.877Z,99732.05
2019-01-16T05:32:34.678Z,99729.43
2019-01-16T05:35:08.921Z,99733.72
2019-01-16T05:37:36.988Z,99736.28
2019-01-16T05:40:24.766Z,99740.16
2019-01-16T05:42:52.592Z,99735.08
2019-01-16T05:45:32.641Z,99743.64
2019-01-16T05:48:00.490Z,99750.95
2019-01-16T05:50:44.939Z,99750.95
2019-01-16T05:53:18.491Z,99759.11
2019-01-16T05:55:55.304Z,99748.83
2019-01-16T05:58:35.337Z,99753.48
2019-01-16T06:01:21.214Z,99757.72
2019-01-16T06:03:57.728Z,99761.11
2019-01-16T06:06:28.666Z,99755.52
2019-01-16T06:09:02.659Z,99754.21
2019-01-16T06:11:30.642Z,99753.72
2019-01-16T06:14:01.511Z,99759.28
2019-01-16T06:16:29.437Z,99765.67
2019-01-16T06:18:57.575Z,99773.36
2019-01-16T06:21:37.566Z,99770.30
2019-01-16T06:24:22.271Z,99769.90
2019-01-16T06:26:52.808Z,99767.30
2019-01-16T06:29:37.351Z,99769.44
2019-01-16T06:32:14.325Z,99720.97
2019-01-16T06:34:42.404Z,99777.08
2019-01-16T06:37:16.182Z,99780.05
2019-01-16T06:39:50.175Z,99777.02
2019-01-16T06:42:27.396Z,99780.37
2019-01-16T06:44:55.480Z,99776.50
2019-01-16T06:47:26.286Z,99771.75
2019-01-16T06:50:01.695Z,99773.84
2019-01-16T06:52:26.905Z,99770.41
2019-01-16T06:54:54.759Z,99778.16
2019-01-16T06:57:29.078Z,99769.59
2019-01-16T07:00:06.090Z,99723.74
2019-01-16T07:02:45.950Z,99782.01
2019-01-16T07:05:25.653Z,99780.23
2019-01-16T07:07:53.818Z,99778.92
2019-01-16T07:10:27.464Z,99777.64
2019-01-16T07:13:11.791Z,99778.52
2019-01-16T07:15:56.347Z,99787.48
2019-01-16T07:18:33.182Z,99785.27
2019-01-16T07:21:13.209Z,99788.18
2019-01-16T07:23:41.280Z,99791.56
2019-01-16T07:26:18.129Z,99801.41
2019-01-16T07:28:48.811Z,99791.16
2019-01-16T07:31:16.814Z,99795.00
2019-01-16T07:33:50.747Z,99744.41
2019-01-16T07:36:27.283Z,99791.59
2019-01-16T07:39:07.294Z,99790.69
2019-01-16T07:41:50.299Z,99792.84
2019-01-16T07:44:23.960Z,99791.53
2019-01-16T07:46:54.897Z,99793.72
2019-01-16T07:49:39.517Z,99790.25
2019-01-16T07:52:10.355Z,99788.13
2019-01-16T07:54:38.272Z,99786.84
2019-01-16T07:57:21.223Z,99787.25
2019-01-16T07:59:49.053Z,99780.84
2019-01-16T08:02:19.606Z,99784.69
2019-01-16T08:05:04.221Z,99785.08
2019-01-16T08:07:44.119Z,99784.64
2019-01-16T08:10:30.610Z,99783.38
2019-01-16T08:12:58.488Z,99786.81
2019-01-16T08:15:32.696Z,99782.56
2019-01-16T08:18:19.430Z,99780.03
2019-01-16T08:21:04.148Z,99781.75
2019-01-16T08:23:48.613Z,99784.78
2019-01-16T08:26:33.160Z,99784.75
2019-01-16T08:29:17.608Z,99782.16
2019-01-16T08:32:01.911Z,99775.75
2019-01-16T08:34:38.674Z,99780.00
2019-01-16T08:37:06.954Z,99783.00
2019-01-16T08:39:34.760Z,99774.47
2019-01-16T08:42:05.583Z,99776.19
2019-01-16T08:44:38.159Z,99779.59
2019-01-16T08:47:08.777Z,99778.72
2019-01-16T08:49:48.891Z,99773.19
2019-01-16T08:52:22.558Z,99765.50
2019-01-16T08:54:56.704Z,99766.75
2019-01-16T08:57:39.694Z,99758.63
2019-01-16T09:00:29.307Z,99759.91
2019-01-16T09:03:02.905Z,99753.94
2019-01-16T09:05:46.156Z,99724.06
2019-01-16T09:08:22.973Z,99752.62
2019-01-16T09:11:07.645Z,99753.03
2019-01-16T09:13:35.484Z,99750.84
2019-01-16T09:16:15.366Z,99752.98
2019-01-16T09:18:43.316Z,99755.11
2019-01-16T09:21:26.548Z,99755.05
2019-01-16T09:23:54.482Z,99755.80
2019-01-16T09:26:31.697Z,99761.74
2019-01-16T09:29:08.542Z,99756.59
2019-01-16T09:31:42.390Z,99760.40
2019-01-16T09:34:19.133Z,99762.99
2019-01-16T09:36:47.200Z,99768.15
2019-01-16T09:39:15.106Z,99772.02
2019-01-16T09:41:42.989Z,99765.21
2019-01-16T09:44:16.777Z,99765.21
2019-01-16T09:47:01.268Z,99760.52
2019-01-16T09:49:38.260Z,99762.23
2019-01-16T09:52:12.168Z,99764.39
2019-01-16T09:54:40.359Z,99761.83
2019-01-16T09:57:16.958Z,99766.98
2019-01-16T09:59:50.733Z,99761.86
2019-01-16T10:02:24.607Z,99767.89
2019-01-16T10:04:56.872Z,99755.48
2019-01-16T10:07:27.754Z,99761.48
2019-01-16T10:09:55.586Z,99754.27
2019-01-16T10:12:23.640Z,99755.16
2019-01-16T10:15:03.222Z,99757.31
2019-01-16T10:17:31.207Z,99759.47
2019-01-16T10:19:59.052Z,99751.81
2019-01-16T10:22:26.994Z,99755.22
2019-01-16T10:24:54.992Z,99700.40
2019-01-16T10:27:34.671Z,99753.49
2019-01-16T10:30:17.604Z,99754.78
2019-01-16T10:32:48.497Z,99743.71
2019-01-16T10:35:25.487Z,99748.92
2019-01-16T10:37:53.408Z,99746.81
2019-01-16T10:40:23.957Z,99737.88
2019-01-16T10:42:54.941Z,99744.28
2019-01-16T10:45:34.614Z,99749.44
2019-01-16T10:48:11.708Z,99747.34
2019-01-16T10:51:03.018Z,99742.70
2019-01-16T10:53:25.706Z,99745.35
2019-01-16T10:55:53.594Z,99733.81
2019-01-16T10:58:38.314Z,99730.81
2019-01-16T11:01:06.225Z,99735.13
2019-01-16T11:03:34.245Z,99730.92
2019-01-16T11:06:20.461Z,99730.07
2019-01-16T11:09:06.468Z,99738.23
2019-01-16T11:11:40.276Z,99738.25
2019-01-16T11:14:08.136Z,99743.00
2019-01-16T11:16:57.527Z,99732.77
2019-01-16T11:19:41.975Z,99735.81
2019-01-16T11:22:27.916Z,99739.72
2019-01-16T11:24:55.786Z,99734.23
2019-01-16T11:27:23.607Z,99735.54
2019-01-16T11:29:51.812Z,99734.75
2019-01-16T11:32:22.396Z,99735.20
2019-01-16T11:35:02.377Z,99732.69
2019-01-16T11:37:36.180Z,99731.45
2019-01-16T11:40:24.175Z,99731.50
2019-01-16T11:42:52.256Z,99725.55
2019-01-16T11:45:29.424Z,99729.42
2019-01-16T11:48:14.707Z,99726.47
2019-01-16T11:50:45.528Z,99727.37
2019-01-16T11:53:29.869Z,99719.72
2019-01-16T11:56:00.709Z,99717.17
2019-01-16T11:58:28.508Z,99708.23
2019-01-16T12:01:05.667Z,99707.44
2019-01-16T12:03:33.498Z,99706.15
2019-01-16T12:06:04.056Z,99698.50
2019-01-16T12:08:41.021Z,99693.41
2019-01-16T12:11:23.698Z,99699.44
2019-01-16T12:13:51.871Z,99694.30
2019-01-16T12:16:25.560Z,99691.34
2019-01-16T12:18:56.703Z,99690.50
2019-01-16T12:21:26.544Z,99685.80
2019-01-16T12:23:54.485Z,99685.38
2019-01-16T12:26:22.670Z,99679.39
2019-01-16T12:28:50.720Z,99678.11
2019-01-16T12:31:21.300Z,99677.70
2019-01-16T12:33:52.208Z,99674.70
2019-01-16T12:36:35.017Z,99681.97
2019-01-16T12:39:11.961Z,99672.14
2019-01-16T12:41:39.961Z,99678.98
2019-01-16T12:44:13.811Z,99674.73
2019-01-16T12:46:53.554Z,99672.18
2019-01-16T12:49:37.902Z,99674.75
2019-01-16T12:52:23.913Z,99673.45
2019-01-16T12:54:54.627Z,99673.83
2019-01-16T12:57:22.460Z,99668.27
2019-01-16T12:59:56.514Z,99667.83
2019-01-16T13:02:36.444Z,99660.13
2019-01-16T13:05:18.242Z,99657.13
2019-01-16T13:07:48.995Z,99658.86
2019-01-16T13:10:29.049Z,99664.50
2019-01-16T13:13:05.703Z,99665.36
2019-01-16T13:15:45.440Z,99664.97
2019-01-16T13:18:16.015Z,99664.12
2019-01-16T13:20:53.130Z,99657.70
2019-01-16T13:23:37.575Z,99667.58
2019-01-16T13:26:22.031Z,99671.88
2019-01-16T13:28:52.825Z,99658.20
2019-01-16T13:31:20.767Z,99657.73
2019-01-16T13:34:05.263Z,99662.03
2019-01-16T13:36:36.046Z,99669.73
2019-01-16T13:39:22.448Z,99668.41
2019-01-16T13:41:55.884Z,99671.39
2019-01-16T13:44:23.943Z,99673.06
2019-01-16T13:46:51.731Z,99671.77
2019-01-16T13:49:19.763Z,99672.57
2019-01-16T13:51:56.742Z,99671.63
2019-01-16T13:54:33.426Z,99669.88
2019-01-16T13:57:13.607Z,99668.59
2019-01-16T13:59:50.579Z,99664.74
2019-01-16T14:02:24.759Z,99662.61
2019-01-16T14:04:58.600Z,99657.91
2019-01-16T14:07:43.194Z,99654.41
2019-01-16T14:10:20.753Z,99658.20
2019-01-16T14:13:05.241Z,99659.83
2019-01-16T14:15:51.258Z,99656.83
2019-01-16T14:18:19.492Z,99655.95
2019-01-16T14:20:50.309Z,99652.11
2019-01-16T14:23:34.721Z,99645.67
2019-01-16T14:26:08.639Z,99651.23
2019-01-16T14:28:53.298Z,99663.66
2019-01-16T14:31:24.115Z,99652.52
2019-01-16T14:34:08.664Z,99648.19
2019-01-16T14:36:36.700Z,99652.84
2019-01-16T14:39:17.176Z,99651.95
2019-01-16T14:41:59.871Z,99648.44
2019-01-16T14:44:42.833Z,99653.14
2019-01-16T14:47:10.840Z,99639.81
2019-01-16T14:49:47.702Z,99638.05
2019-01-16T14:52:21.830Z,99637.15
2019-01-16T14:54:50.131Z,99628.16
2019-01-16T14:57:27.062Z,99629.05
2019-01-16T14:59:58.177Z,99632.00
2019-01-16T15:02:35.115Z,99637.10
2019-01-16T15:05:03.472Z,99628.95
2019-01-16T15:07:37.075Z,99625.06
2019-01-16T15:10:12.957Z,99614.71
2019-01-16T15:12:57.612Z,99613.74
2019-01-16T15:15:31.385Z,99609.02
2019-01-16T15:18:11.333Z,99613.96
2019-01-16T15:20:48.146Z,99618.61
2019-01-16T15:23:16.166Z,99612.55
2019-01-16T15:25:43.966Z,99612.11
2019-01-16T15:28:12.060Z,99609.49
2019-01-16T15:30:56.708Z,99606.47
2019-01-16T15:33:36.519Z,99594.42
2019-01-16T15:36:07.884Z,99597.81
2019-01-16T15:38:50.857Z,99593.05
2019-01-16T15:41:18.932Z,99587.84
2019-01-16T15:43:49.738Z,99589.56
2019-01-16T15:46:20.692Z,99589.61
2019-01-16T15:48:48.714Z,99585.00
2019-01-16T15:51:31.629Z,99583.77
2019-01-16T15:54:14.401Z,99580.77
2019-01-16T15:56:59.019Z,99558.30
2019-01-16T15:59:29.847Z,99590.00
2019-01-16T16:01:58.008Z,99591.09
2019-01-16T16:04:32.008Z,99583.28
2019-01-16T16:07:17.757Z,99527.07
2019-01-16T16:09:48.478Z,99576.28
2019-01-16T16:12:25.395Z,99580.94
2019-01-16T16:14:59.391Z,99577.13
2019-01-16T16:17:29.928Z,99578.81
2019-01-16T16:20:06.727Z,99570.97
2019-01-16T16:22:40.550Z,99575.11
2019-01-16T16:25:08.789Z,99571.12
2019-01-16T16:27:45.528Z,99572.73
2019-01-16T16:30:17.160Z,99569.22
2019-01-16T16:33:00.087Z,99562.27
2019-01-16T16:35:44.710Z,99552.34
2019-01-16T16:38:15.269Z,99558.22
2019-01-16T16:40:49.436Z,99565.41
2019-01-16T16:43:17.341Z,99557.23
2019-01-16T16:45:54.358Z,99557.17
2019-01-16T16:48:37.461Z,99559.23
2019-01-16T16:51:08.262Z,99544.64
2019-01-16T16:53:52.664Z,99545.19
2019-01-16T16:56:20.870Z,99490.92
2019-01-16T16:58:54.538Z,99533.69
2019-01-16T17:01:33.444Z,99541.50
2019-01-16T17:04:10.321Z,99538.89
2019-01-16T17:06:54.857Z,99532.46
2019-01-16T17:09:39.143Z,99524.38
2019-01-16T17:12:12.862Z,99520.98
2019-01-16T17:14:43.465Z,99518.02
2019-01-16T17:17:11.448Z,99512.44
2019-01-16T17:19:42.099Z,99516.53
2019-01-16T17:22:18.928Z,99512.58
2019-01-16T17:24:49.817Z,99521.44
2019-01-16T17:27:34.339Z,99519.20
2019-01-16T17:30:10.985Z,99517.42
2019-01-16T17:32:41.515Z,99527.63
2019-01-16T17:35:15.599Z,99525.12
2019-01-16T17:37:58.647Z,99513.71
2019-01-16T17:40:32.577Z,99518.02
2019-01-16T17:43:18.571Z,99517.17
2019-01-16T17:46:03.430Z,99514.18
2019-01-16T17:48:34.222Z,99511.97
2019-01-16T17:51:07.779Z,99508.50
2019-01-16T17:53:38.716Z,99511.00
2019-01-16T17:56:18.718Z,99512.63
2019-01-16T17:58:52.690Z,99508.73
2019-01-16T18:01:21.471Z,99508.20
2019-01-16T18:03:58.311Z,99502.65
2019-01-16T18:06:29.006Z,99502.19
2019-01-16T18:08:56.969Z,99512.87
2019-01-16T18:11:27.772Z,99504.27
2019-01-16T18:14:07.559Z,99500.81
2019-01-16T18:16:47.128Z,99488.03
2019-01-16T18:19:33.020Z,99496.13
2019-01-16T18:22:03.943Z,99497.91
2019-01-16T18:24:31.879Z,99503.12
2019-01-16T18:26:59.948Z,99491.20
2019-01-16T18:29:33.773Z,99490.33
2019-01-16T18:32:10.699Z,99488.68
2019-01-16T18:34:55.102Z,99485.81
2019-01-16T18:37:32.126Z,99482.87
2019-01-16T18:39:59.919Z,99487.18
2019-01-16T18:42:44.214Z,99479.48
2019-01-16T18:45:23.452Z,99477.80
2019-01-16T18:47:51.429Z,99481.69
2019-01-16T18:50:37.213Z,99473.98
2019-01-16T18:53:11.244Z,99467.13
2019-01-16T18:55:41.869Z,99468.00
2019-01-16T18:58:12.606Z,99468.41
2019-01-16T19:00:40.650Z,99461.61
2019-01-16T19:03:25.200Z,99470.56
2019-01-16T19:06:09.578Z,99465.04
2019-01-16T19:08:43.425Z,99455.71
2019-01-16T19:11:11.479Z,99453.67
2019-01-16T19:13:55.800Z,99448.20
2019-01-16T19:16:41.565Z,99441.80
2019-01-16T19:19:09.535Z,99439.75
2019-01-16T19:21:43.241Z,99439.33
2019-01-16T19:24:11.384Z,99439.39
2019-01-16T19:26:39.403Z,99438.63
2019-01-16T19:29:07.328Z,99438.30
2019-01-16T19:31:47.097Z,99440.09
2019-01-16T19:34:31.587Z,99438.44
2019-01-16T19:37:05.383Z,99440.58
2019-01-16T19:39:39.040Z,99444.42
2019-01-16T19:42:09.691Z,99446.57
2019-01-16T19:44:37.790Z,99436.80
2019-01-16T19:47:11.566Z,99434.73
2019-01-16T19:49:42.531Z,99435.16
2019-01-16T19:52:16.283Z,99439.05
2019-01-16T19:54:44.217Z,99438.28
2019-01-16T19:57:18.233Z,99427.28
2019-01-16T19:59:46.303Z,99425.66
2019-01-16T20:02:31.354Z,99425.30
2019-01-16T20:05:15.507Z,99419.41
2019-01-16T20:08:00.038Z,99417.33
2019-01-16T20:10:37.039Z,99416.52
2019-01-16T20:13:16.932Z,99417.90
2019-01-16T20:15:59.705Z,99416.23
2019-01-16T20:18:39.876Z,99408.62
2019-01-16T20:21:24.295Z,99404.84
2019-01-16T20:24:07.237Z,99407.49
2019-01-16T20:26:41.038Z,99401.16
2019-01-16T20:29:12.077Z,99406.36
2019-01-16T20:31:56.716Z,99409.45
2019-01-16T20:34:30.463Z,99414.63
2019-01-16T20:37:16.408Z,99415.13
2019-01-16T20:39:44.535Z,99410.52
2019-01-16T20:42:24.656Z,99409.29
2019-01-16T20:45:10.845Z,99417.03
2019-01-16T20:47:47.667Z,99406.40
2019-01-16T20:50:32.318Z,99404.77
2019-01-16T20:53:17.500Z,99398.85
2019-01-16T20:55:45.870Z,99396.77
2019-01-16T20:58:15.218Z,99386.98
2019-01-16T21:00:48.981Z,99390.87
2019-01-16T21:03:25.549Z,99387.52
2019-01-16T21:05:53.788Z,99381.57
2019-01-16T21:08:30.679Z,99379.93
2019-01-16T21:10:58.901Z,99370.13
2019-01-16T21:13:29.226Z,99369.75
2019-01-16T21:16:03.062Z,99365.53
2019-01-16T21:18:33.585Z,99357.02
2019-01-16T21:21:01.528Z,99354.90
2019-01-16T21:23:32.587Z,99355.81
2019-01-16T21:26:18.606Z,99360.98
2019-01-16T21:28:49.387Z,99356.36
2019-01-16T21:31:33.727Z,99355.53
2019-01-16T21:34:01.906Z,99352.58
2019-01-16T21:36:46.195Z,99357.76
2019-01-16T21:39:22.888Z,99355.66
2019-01-16T21:42:05.609Z,99350.55
2019-01-16T21:44:45.495Z,99347.59
2019-01-16T21:47:36.376Z,99345.48
2019-01-16T21:50:05.715Z,99336.98
2019-01-16T21:52:39.284Z,99337.84
2019-01-16T21:55:22.630Z,99334.88
2019-01-16T21:57:53.175Z,99333.22
2019-01-16T22:00:37.645Z,99326.80
2019-01-16T22:03:11.580Z,99324.66
2019-01-16T22:05:42.752Z,99327.72
2019-01-16T22:08:16.336Z,99328.58
2019-01-16T22:11:02.307Z,99332.44
2019-01-16T22:13:42.435Z,99333.34
2019-01-16T22:16:28.373Z,99329.50
2019-01-16T22:18:56.401Z,99331.23
2019-01-16T22:21:40.852Z,99333.83
2019-01-16T22:24:11.669Z,99325.31
2019-01-16T22:26:51.580Z,99322.75
2019-01-16T22:29:28.531Z,99321.91
2019-01-16T22:32:13.233Z,99321.09
2019-01-16T22:34:50.042Z,99318.95
2019-01-16T22:37:30.104Z,99320.27
2019-01-16T22:40:14.518Z,99316.83
2019-01-16T22:42:59.209Z,99317.72
2019-01-16T22:45:27.239Z,99313.46
2019-01-16T22:47:55.293Z,99304.05
2019-01-16T22:50:23.294Z,99308.33
2019-01-16T22:52:56.908Z,99300.63
2019-01-16T22:55:27.723Z,99300.22
2019-01-16T22:58:04.408Z,99300.22
2019-01-16T23:00:42.219Z,99292.94
2019-01-16T23:03:10.143Z,99299.37
2019-01-16T23:05:44.039Z,99298.09
2019-01-16T23:08:11.861Z,99293.38
2019-01-16T23:10:56.187Z,99292.55
2019-01-16T23:13:30.209Z,99294.70
2019-01-16T23:16:16.523Z,99291.27
2019-01-16T23:18:50.063Z,99293.84
2019-01-16T23:21:20.780Z,99291.69
2019-01-16T23:23:49.833Z,99290.86
2019-01-16T23:26:33.016Z,99281.41
2019-01-16T23:29:03.952Z,99281.41
2019-01-16T23:31:34.829Z,99279.70
2019-01-16T23:34:11.378Z,99276.72
2019-01-16T23:36:45.499Z,99277.55
2019-01-16T23:39:29.746Z,99264.69
2019-01-16T23:42:03.592Z,99267.27
2019-01-16T23:44:31.609Z,99273.28
2019-01-16T23:46:59.411Z,99269.00
2019-01-16T23:49:45.508Z,99277.14
2019-01-16T23:52:19.112Z,99287.89
2019-01-16T23:54:59.350Z,99281.00
2019-01-16T23:57:27.331Z,99278.02
